Pagrindinis puslapis
METAR-TAF:

METAR-TAF

Oro uostai :

Phitsanulok, Tailandas

platuma: 16-46-23N, ilguma: 100-16-56E, Aukštis: 47 m

Dabartinis oras

Ataskaita buvo paskelbta 59 minutes, ne 04:00 UTC
Vėjas 2 kt nuo kintamojo kryptimis
Temperatūra 29°C
Drėgmė 84%
Slėgis 1012 hPa
Matomumas 10 km arba daugiau
nėra debesų žemiau 1500 m ir nėra kamuolinių lietaus debesų

METAR: VTPP 310400Z VRB02KT CAVOK 29/26 Q1012 NOSIG

Laikas: 11:59 (04:59 UTC)

Prognozė

Ataskaita buvo paskelbta 5 valandos ir 59 minutes, ne 23:00 UTC
Prognozė galioja nuo 31 metu 00 UTC su 31 metu 24 UTC
Vėjas 5 kt iš Vakarų/Pietvakarių
Matomumas 10 km arba daugiau
Išsisklaidę debesys ne aukštis 3000 ft
Laikinai
nuo 31 metu 08 UTC su 31 metu 14 UTC
Vėjas 15 kt iš Vakarų/Pietvakarių su gūsio iki 25 kt
Matomumas: 4000 m
Mažai debesys ne aukštis 2000 ft, Liūtiniai kamuoliniai debesys.
Su prošvaistėmis ne aukštis 2500 ft
perkūnija, lietus

TAF: VTPP 302300Z 3100/3124 24005KT 9999 SCT030 TEMPO 3108/3114 24015G25KT 4000 TSRA FEW020CB BKN025

Orai ataskaitas ir orų prognozės (METAR, TAF).

turimą stotys yra geltonos ir raudonos taškus žemėlapyje.

Perkelti pele per norėdami pamatyti stoties vardą.

Tada spustelėkite, norėdami matyti oro stebėjimo ir prognozės.

Norėdami pakeisti žemėlapį: spustelėkite ant žalios mygtukų su juodo kryžiaus žemyn,; žalią mygtuką su brūkšneliu, jei norite nutolinti; arba žalių rodyklių gretimoms žemėlapius.


METAR-TAF: